createdAt,value
2022-08-27T00:02:13.940Z,82.13
2022-08-27T00:04:42.101Z,81.69
2022-08-27T00:07:11.370Z,81.28
2022-08-27T00:09:39.587Z,80.45
2022-08-27T00:12:09.142Z,80.43
2022-08-27T00:14:38.671Z,80.82
2022-08-27T00:17:07.945Z,80.62
2022-08-27T00:19:36.903Z,80.37
2022-08-27T00:22:05.960Z,79.95
2022-08-27T00:24:33.979Z,79.76
2022-08-27T00:27:02.077Z,80.01
2022-08-27T00:29:31.657Z,80.12
2022-08-27T00:32:00.407Z,80.53
2022-08-27T00:34:28.741Z,80.30
2022-08-27T00:36:56.741Z,80.76
2022-08-27T00:39:25.016Z,80.09
2022-08-27T00:41:52.990Z,79.63
2022-08-27T00:44:20.996Z,79.37
2022-08-27T00:46:52.737Z,80.58
2022-08-27T00:49:24.465Z,79.84
2022-08-27T00:51:56.651Z,80.57
2022-08-27T00:54:26.332Z,81.02
2022-08-27T00:56:54.432Z,81.35
2022-08-27T00:59:24.975Z,80.82
2022-08-27T01:02:11.752Z,80.60
2022-08-27T01:04:41.342Z,79.71
2022-08-27T01:07:09.950Z,80.41
2022-08-27T01:09:38.606Z,80.34
2022-08-27T01:12:07.215Z,80.59
2022-08-27T01:15:00.346Z,79.60
2022-08-27T01:17:29.747Z,80.80
2022-08-27T01:20:00.447Z,80.08
2022-08-27T01:22:34.434Z,81.93
2022-08-27T01:25:08.183Z,82.01
2022-08-27T01:27:36.532Z,82.44
2022-08-27T01:30:05.673Z,82.23
2022-08-27T01:32:35.481Z,82.13
2022-08-27T01:35:07.127Z,82.41
2022-08-27T01:37:35.959Z,82.36
2022-08-27T01:40:07.158Z,81.85
2022-08-27T01:42:37.543Z,82.47
2022-08-27T01:45:08.794Z,82.50
2022-08-27T01:47:37.804Z,82.38
2022-08-27T01:50:09.163Z,82.63
2022-08-27T01:52:37.181Z,81.28
2022-08-27T01:55:09.388Z,80.87
2022-08-27T01:57:37.514Z,80.22
2022-08-27T02:00:07.202Z,80.14
2022-08-27T02:02:40.066Z,79.64
2022-08-27T02:05:08.481Z,81.49
2022-08-27T02:07:37.388Z,81.64
2022-08-27T02:10:09.445Z,82.36
2022-08-27T02:12:37.553Z,82.56
2022-08-27T02:15:06.840Z,82.93
2022-08-27T02:17:35.195Z,82.71
2022-08-27T02:20:03.623Z,82.86
2022-08-27T02:22:31.954Z,82.15
2022-08-27T02:24:59.932Z,82.30
2022-08-27T02:27:29.411Z,82.21
2022-08-27T02:29:57.428Z,82.54
2022-08-27T02:32:31.672Z,81.93
2022-08-27T02:35:00.667Z,82.20
2022-08-27T02:37:28.688Z,81.80
2022-08-27T02:39:57.133Z,81.31
2022-08-27T02:42:25.214Z,81.53
2022-08-27T02:44:54.993Z,81.72
2022-08-27T02:47:23.007Z,81.96
2022-08-27T02:49:51.074Z,82.24
2022-08-27T02:52:22.772Z,81.87
2022-08-27T02:54:53.588Z,82.43
2022-08-27T02:57:22.523Z,82.72
2022-08-27T02:59:50.960Z,82.57
2022-08-27T03:02:20.912Z,82.15
2022-08-27T03:04:49.596Z,82.28
2022-08-27T03:07:19.593Z,82.27
2022-08-27T03:09:47.843Z,82.07
2022-08-27T03:12:16.028Z,81.68
2022-08-27T03:14:44.651Z,82.25
2022-08-27T03:17:30.535Z,82.23
2022-08-27T03:20:01.593Z,82.27
2022-08-27T03:22:29.638Z,81.80
2022-08-27T03:24:57.646Z,81.99
2022-08-27T03:27:25.655Z,82.49
2022-08-27T03:29:54.225Z,82.40
2022-08-27T03:32:22.283Z,82.13
2022-08-27T03:34:50.352Z,82.18
2022-08-27T03:37:19.760Z,82.48
2022-08-27T03:39:47.800Z,82.77
2022-08-27T03:42:15.804Z,82.31
2022-08-27T03:44:43.846Z,82.45
2022-08-27T03:47:11.918Z,82.64
2022-08-27T03:49:40.003Z,82.71
2022-08-27T03:52:08.823Z,82.33
2022-08-27T03:54:38.794Z,82.02
2022-08-27T03:57:07.590Z,82.11
2022-08-27T03:59:36.022Z,82.38
2022-08-27T04:02:04.164Z,81.22
2022-08-27T04:04:32.454Z,81.22
2022-08-27T04:07:01.071Z,81.63
2022-08-27T04:09:29.337Z,81.68
2022-08-27T04:11:58.815Z,81.66
2022-08-27T04:14:27.645Z,81.88
2022-08-27T04:16:56.913Z,82.04
2022-08-27T04:19:28.101Z,81.53
2022-08-27T04:22:01.226Z,81.87
2022-08-27T04:24:30.730Z,81.67
2022-08-27T04:27:00.916Z,81.91
2022-08-27T04:29:29.427Z,82.34
2022-08-27T04:31:57.683Z,82.61
2022-08-27T04:34:25.880Z,82.86
2022-08-27T04:36:56.716Z,83.13
2022-08-27T04:39:25.248Z,83.17
2022-08-27T04:41:54.988Z,83.19
2022-08-27T04:44:25.401Z,82.93
2022-08-27T04:46:56.631Z,83.51
2022-08-27T04:49:25.260Z,82.99
2022-08-27T04:51:53.412Z,82.67
2022-08-27T04:54:22.497Z,82.20
2022-08-27T04:57:00.671Z,81.50
2022-08-27T04:59:30.301Z,81.26
2022-08-27T05:01:58.451Z,81.27
2022-08-27T05:04:26.752Z,82.16
2022-08-27T05:06:54.973Z,81.27
2022-08-27T05:09:24.588Z,81.36
2022-08-27T05:11:55.480Z,82.40
2022-08-27T05:14:25.410Z,81.44
2022-08-27T05:16:54.800Z,81.96
2022-08-27T05:19:22.799Z,82.13
2022-08-27T05:21:53.161Z,81.80
2022-08-27T05:24:21.495Z,81.03
2022-08-27T05:26:49.851Z,81.42
2022-08-27T05:29:18.157Z,82.01
2022-08-27T05:31:47.936Z,82.44
2022-08-27T05:34:24.689Z,83.53
2022-08-27T05:36:55.571Z,84.16
2022-08-27T05:39:23.700Z,84.07
2022-08-27T05:41:52.943Z,83.03
2022-08-27T05:47:09.181Z,84.44
2022-08-27T05:49:38.931Z,84.96
2022-08-27T05:52:10.492Z,84.84
2022-08-27T05:54:38.961Z,84.60
2022-08-27T05:57:07.155Z,84.32
2022-08-27T05:59:53.104Z,84.57
2022-08-27T06:02:21.864Z,84.91
2022-08-27T06:04:51.353Z,84.79
2022-08-27T06:07:19.859Z,84.04
2022-08-27T06:09:47.868Z,84.50
2022-08-27T06:12:15.985Z,84.80
2022-08-27T06:14:44.101Z,84.86
2022-08-27T06:17:12.257Z,84.99
2022-08-27T06:19:42.409Z,84.10
2022-08-27T06:22:12.024Z,84.77
2022-08-27T06:24:41.577Z,84.27
2022-08-27T06:27:11.290Z,84.90
2022-08-27T06:29:39.878Z,84.83
2022-08-27T06:32:09.209Z,84.31
2022-08-27T06:34:38.122Z,84.40
2022-08-27T06:37:06.389Z,83.71
2022-08-27T06:39:37.558Z,83.56
2022-08-27T06:42:06.314Z,83.07
2022-08-27T06:44:35.255Z,83.56
2022-08-27T06:47:04.682Z,83.67
2022-08-27T06:49:33.768Z,83.82
2022-08-27T06:52:02.262Z,83.55
2022-08-27T06:54:30.820Z,82.65
2022-08-27T06:57:01.063Z,84.06
2022-08-27T06:59:29.239Z,84.38
2022-08-27T07:01:57.453Z,84.24
2022-08-27T07:04:32.376Z,83.89
2022-08-27T07:07:04.246Z,84.14
2022-08-27T07:09:33.057Z,84.34
2022-08-27T07:12:02.738Z,84.44
2022-08-27T07:14:37.163Z,83.57
2022-08-27T07:17:10.767Z,83.98
2022-08-27T07:19:41.093Z,84.18
2022-08-27T07:22:09.637Z,84.49
2022-08-27T07:24:38.482Z,84.41
2022-08-27T07:27:08.525Z,83.46
2022-08-27T07:29:36.626Z,83.63
2022-08-27T07:32:05.480Z,83.41
2022-08-27T07:34:33.531Z,83.08
2022-08-27T07:37:02.044Z,83.03
2022-08-27T07:39:30.156Z,83.20
2022-08-27T07:42:16.391Z,83.64
2022-08-27T07:44:46.088Z,84.44
2022-08-27T07:47:14.173Z,84.08
2022-08-27T07:49:42.241Z,84.04
2022-08-27T07:52:10.612Z,84.11
2022-08-27T07:54:38.685Z,83.82
2022-08-27T07:57:06.848Z,83.73
2022-08-27T07:59:34.972Z,83.71
2022-08-27T08:02:05.476Z,84.53
2022-08-27T08:04:33.526Z,84.42
2022-08-27T08:07:01.692Z,84.40
2022-08-27T08:09:32.189Z,83.95
2022-08-27T08:12:00.285Z,83.21
2022-08-27T08:14:28.401Z,83.64
2022-08-27T08:17:00.471Z,82.91
2022-08-27T08:19:35.057Z,82.51
2022-08-27T08:22:05.819Z,82.15
2022-08-27T08:24:35.239Z,81.73
2022-08-27T08:27:07.205Z,82.50
2022-08-27T08:29:36.859Z,81.91
2022-08-27T08:32:05.483Z,82.30
2022-08-27T08:34:36.781Z,82.92
2022-08-27T08:37:05.344Z,83.25
2022-08-27T08:39:33.433Z,82.69
2022-08-27T08:42:03.199Z,82.81
2022-08-27T08:44:34.162Z,83.47
2022-08-27T08:47:09.595Z,82.04
2022-08-27T08:49:48.137Z,81.96
2022-08-27T08:52:31.261Z,82.32
2022-08-27T08:55:08.631Z,82.95
2022-08-27T08:57:41.110Z,82.18
2022-08-27T09:00:13.341Z,82.44
2022-08-27T09:02:42.877Z,81.50
2022-08-27T09:05:13.011Z,81.71
2022-08-27T09:07:47.278Z,82.25
2022-08-27T09:10:20.824Z,81.21
2022-08-27T09:12:48.915Z,81.33
2022-08-27T09:15:20.348Z,80.97
2022-08-27T09:17:48.988Z,80.14
2022-08-27T09:20:21.381Z,80.08
2022-08-27T09:22:59.239Z,80.69
2022-08-27T09:25:29.749Z,80.82
2022-08-27T09:28:00.195Z,80.20
2022-08-27T09:30:31.095Z,77.44
2022-08-27T09:33:56.298Z,77.87
2022-08-27T09:36:26.513Z,78.58
2022-08-27T09:38:58.914Z,77.11
2022-08-27T09:41:29.316Z,77.15
2022-08-27T09:43:58.901Z,77.84
2022-08-27T09:46:28.248Z,77.40
2022-08-27T09:48:56.856Z,77.25
2022-08-27T09:51:28.461Z,76.94
2022-08-27T09:53:58.698Z,76.18
2022-08-27T09:56:30.004Z,75.50
2022-08-27T09:59:03.692Z,75.13
2022-08-27T10:01:34.354Z,74.83
2022-08-27T10:04:09.668Z,74.55
2022-08-27T10:06:45.989Z,74.00
2022-08-27T10:09:17.663Z,73.83
2022-08-27T10:11:51.121Z,73.75
2022-08-27T10:14:26.563Z,73.84
2022-08-27T10:17:07.916Z,71.83
2022-08-27T10:19:43.895Z,73.08
2022-08-27T10:22:21.210Z,74.02
2022-08-27T10:25:01.285Z,73.16
2022-08-27T10:27:34.833Z,73.33
2022-08-27T10:30:06.429Z,73.16
2022-08-27T10:32:52.362Z,73.57
2022-08-27T10:38:02.890Z,73.21
2022-08-27T10:40:35.227Z,72.87
2022-08-27T10:43:19.574Z,72.61
2022-08-27T10:45:52.718Z,71.26
2022-08-27T10:48:25.178Z,71.35
2022-08-27T10:50:59.365Z,71.36
2022-08-27T10:53:33.695Z,70.53
2022-08-27T10:56:10.160Z,71.12
2022-08-27T10:58:55.742Z,69.70
2022-08-27T11:01:31.693Z,68.82
2022-08-27T11:04:03.697Z,67.63
2022-08-27T11:06:33.706Z,68.25
2022-08-27T11:09:08.315Z,68.85
2022-08-27T11:12:12.780Z,66.99
2022-08-27T11:14:32.160Z,67.76
2022-08-27T11:17:04.801Z,68.29
2022-08-27T11:19:47.969Z,68.87
2022-08-27T11:22:26.232Z,68.74
2022-08-27T11:25:01.172Z,67.53
2022-08-27T11:27:32.071Z,66.77
2022-08-27T11:30:05.223Z,67.78
2022-08-27T11:32:41.685Z,68.47
2022-08-27T11:35:16.459Z,68.51
2022-08-27T11:38:22.282Z,66.74
2022-08-27T11:41:00.857Z,66.97
2022-08-27T11:43:30.473Z,67.90
2022-08-27T11:46:00.554Z,65.72
2022-08-27T11:48:30.609Z,65.02
2022-08-27T11:51:01.186Z,66.58
2022-08-27T11:53:31.484Z,66.06
2022-08-27T11:56:11.821Z,65.89
2022-08-27T11:58:53.087Z,63.09
2022-08-27T12:01:27.165Z,64.65
2022-08-27T12:04:01.999Z,65.10
2022-08-27T12:06:42.600Z,65.65
2022-08-27T12:09:17.622Z,64.44
2022-08-27T12:11:56.804Z,65.15
2022-08-27T12:14:37.553Z,64.03
2022-08-27T12:17:09.441Z,64.57
2022-08-27T12:19:47.118Z,59.71
2022-08-27T12:23:01.035Z,60.20
2022-08-27T12:25:29.491Z,62.85
2022-08-27T12:28:03.173Z,62.59
2022-08-27T12:30:33.296Z,63.04
2022-08-27T12:33:10.132Z,64.42
2022-08-27T12:35:44.183Z,60.79
2022-08-27T12:38:17.190Z,60.47
2022-08-27T12:40:49.545Z,62.47
2022-08-27T12:43:22.716Z,61.98
2022-08-27T12:45:53.273Z,60.05
2022-08-27T12:48:24.675Z,61.64
2022-08-27T12:50:54.100Z,60.27
2022-08-27T12:53:38.846Z,59.93
2022-08-27T12:56:21.226Z,61.66
2022-08-27T12:58:53.893Z,58.71
2022-08-27T13:01:32.274Z,59.30
2022-08-27T13:04:01.333Z,62.37
2022-08-27T13:06:33.088Z,62.62
2022-08-27T13:09:02.503Z,58.07
2022-08-27T13:11:32.229Z,60.49
2022-08-27T13:14:09.422Z,59.49
2022-08-27T13:16:39.954Z,58.45
2022-08-27T13:19:09.256Z,59.29
2022-08-27T13:21:37.484Z,58.57
2022-08-27T13:24:07.155Z,59.06
2022-08-27T13:26:38.946Z,58.95
2022-08-27T13:29:09.126Z,60.32
2022-08-27T13:31:37.207Z,60.30
2022-08-27T13:34:06.847Z,59.60
2022-08-27T13:36:36.924Z,61.33
2022-08-27T13:39:06.879Z,62.12
2022-08-27T13:41:37.044Z,61.46
2022-08-27T13:44:10.886Z,62.05
2022-08-27T13:46:47.256Z,62.23
2022-08-27T13:49:19.921Z,62.82
2022-08-27T13:51:48.874Z,62.67
2022-08-27T13:54:17.875Z,62.50
2022-08-27T13:57:08.511Z,62.58
2022-08-27T13:59:43.082Z,62.66
2022-08-27T14:02:24.325Z,60.94
2022-08-27T14:05:06.417Z,61.42
2022-08-27T14:07:36.965Z,60.34
2022-08-27T14:10:08.016Z,61.56
2022-08-27T14:12:38.398Z,60.59
2022-08-27T14:15:20.935Z,58.92
2022-08-27T14:17:49.507Z,60.62
2022-08-27T14:20:42.520Z,59.00
2022-08-27T14:23:10.733Z,58.93
2022-08-27T14:25:38.847Z,61.43
2022-08-27T14:28:07.181Z,61.93
2022-08-27T14:30:37.120Z,61.70
2022-08-27T14:33:05.209Z,61.41
2022-08-27T14:35:34.837Z,60.74
2022-08-27T14:38:08.116Z,57.41
2022-08-27T14:40:36.359Z,59.29
2022-08-27T14:43:05.154Z,60.49
2022-08-27T14:45:37.080Z,55.78
2022-08-27T14:48:06.810Z,57.91
2022-08-27T14:50:43.472Z,58.87
2022-08-27T14:53:11.661Z,58.06
2022-08-27T14:55:39.914Z,58.12
2022-08-27T14:58:08.536Z,54.18
2022-08-27T15:00:38.454Z,54.96
2022-08-27T15:03:07.708Z,57.33
2022-08-27T15:05:35.756Z,55.00
2022-08-27T15:08:04.616Z,56.78
2022-08-27T15:10:33.014Z,57.94
2022-08-27T15:13:01.106Z,57.31
2022-08-27T15:15:29.213Z,56.78
2022-08-27T15:17:58.701Z,56.84
2022-08-27T15:20:26.807Z,57.21
2022-08-27T15:22:55.124Z,56.39
2022-08-27T15:25:23.497Z,56.93
2022-08-27T15:27:51.545Z,52.57
2022-08-27T15:30:27.132Z,53.73
2022-08-27T15:32:55.731Z,56.13
2022-08-27T15:35:27.530Z,53.42
2022-08-27T15:37:56.694Z,51.95
2022-08-27T15:40:25.686Z,53.24
2022-08-27T15:42:57.074Z,50.88
2022-08-27T15:45:27.629Z,55.02
2022-08-27T15:47:56.203Z,50.68
2022-08-27T15:50:25.896Z,54.32
2022-08-27T15:52:58.275Z,51.96
2022-08-27T15:55:29.496Z,51.91
2022-08-27T15:57:58.567Z,50.74
2022-08-27T16:00:28.205Z,49.60
2022-08-27T16:02:57.124Z,51.98
2022-08-27T16:05:27.803Z,50.62
2022-08-27T16:07:56.025Z,49.47
2022-08-27T16:10:24.210Z,50.20
2022-08-27T16:12:52.354Z,51.35
2022-08-27T16:15:20.693Z,51.08
2022-08-27T16:17:48.890Z,49.98
2022-08-27T16:20:17.135Z,50.57
2022-08-27T16:22:46.676Z,50.98
2022-08-27T16:25:18.475Z,51.37
2022-08-27T16:27:48.756Z,51.96
2022-08-27T16:30:17.179Z,53.62
2022-08-27T16:32:47.870Z,52.74
2022-08-27T16:35:16.577Z,53.96
2022-08-27T16:37:46.170Z,54.29
2022-08-27T16:40:15.030Z,55.73
2022-08-27T16:42:45.515Z,56.26
2022-08-27T16:45:14.790Z,55.80
2022-08-27T16:47:56.873Z,57.12
2022-08-27T16:50:37.041Z,58.49
2022-08-27T16:53:09.566Z,57.89
2022-08-27T16:55:39.117Z,58.41
2022-08-27T16:58:14.641Z,59.06
2022-08-27T17:00:42.887Z,57.84
2022-08-27T17:03:10.987Z,58.17
2022-08-27T17:05:39.176Z,58.07
2022-08-27T17:08:11.463Z,58.30
2022-08-27T17:10:43.377Z,57.73
2022-08-27T17:13:19.329Z,58.45
2022-08-27T17:15:53.167Z,58.70
2022-08-27T17:18:22.279Z,59.07
2022-08-27T17:20:50.495Z,58.67
2022-08-27T17:23:22.833Z,59.14
2022-08-27T17:25:51.046Z,59.82
2022-08-27T17:28:19.713Z,58.99
2022-08-27T17:30:47.886Z,58.82
2022-08-27T17:33:21.055Z,60.18
2022-08-27T17:35:49.299Z,59.78
2022-08-27T17:38:17.407Z,60.05
2022-08-27T17:40:47.308Z,60.44
2022-08-27T17:43:21.258Z,60.40
2022-08-27T17:45:50.082Z,60.60
2022-08-27T17:48:24.792Z,62.17
2022-08-27T17:50:55.026Z,62.36
2022-08-27T17:53:23.121Z,61.91
2022-08-27T17:55:52.743Z,62.06
2022-08-27T17:58:21.446Z,62.10
2022-08-27T18:00:50.083Z,62.06
2022-08-27T18:03:20.641Z,63.46
2022-08-27T18:05:49.511Z,63.63
2022-08-27T18:08:17.793Z,64.71
2022-08-27T18:10:48.851Z,64.82
2022-08-27T18:13:18.498Z,64.89
2022-08-27T18:15:46.827Z,65.08
2022-08-27T18:18:15.765Z,65.40
2022-08-27T18:20:43.818Z,65.27
2022-08-27T18:23:12.505Z,65.58
2022-08-27T18:25:41.030Z,65.80
2022-08-27T18:28:11.324Z,65.93
2022-08-27T18:30:43.460Z,65.30
2022-08-27T18:33:11.766Z,65.17
2022-08-27T18:35:40.364Z,65.29
2022-08-27T18:38:08.793Z,65.29
2022-08-27T18:40:39.461Z,65.29
2022-08-27T18:43:07.790Z,65.38
2022-08-27T18:45:37.766Z,65.57
2022-08-27T18:48:13.121Z,65.86
2022-08-27T18:50:45.001Z,66.17
2022-08-27T18:53:13.965Z,66.34
2022-08-27T18:55:42.330Z,66.09
2022-08-27T18:58:10.541Z,66.85
2022-08-27T19:00:39.187Z,67.06
2022-08-27T19:03:09.404Z,67.11
2022-08-27T19:05:37.638Z,67.40
2022-08-27T19:08:05.703Z,67.79
2022-08-27T19:10:34.578Z,67.04
2022-08-27T19:13:02.628Z,67.21
2022-08-27T19:15:30.721Z,67.11
2022-08-27T19:18:02.950Z,66.89
2022-08-27T19:20:32.545Z,67.44
2022-08-27T19:23:00.594Z,67.22
2022-08-27T19:25:29.579Z,67.26
2022-08-27T19:27:57.870Z,67.16
2022-08-27T19:30:26.999Z,67.73
2022-08-27T19:32:57.649Z,67.35
2022-08-27T19:35:26.116Z,67.29
2022-08-27T19:37:55.828Z,67.56
2022-08-27T19:40:24.141Z,67.47
2022-08-27T19:42:52.305Z,67.14
2022-08-27T19:45:23.030Z,67.21
2022-08-27T19:47:51.857Z,67.62
2022-08-27T19:50:20.488Z,67.05
2022-08-27T19:52:48.542Z,67.19
2022-08-27T19:55:18.307Z,67.51
2022-08-27T19:57:46.684Z,67.13
2022-08-27T20:00:17.044Z,67.26
2022-08-27T20:02:46.483Z,67.32
2022-08-27T20:05:19.021Z,67.63
2022-08-27T20:07:47.493Z,67.30
2022-08-27T20:10:16.941Z,67.46
2022-08-27T20:12:46.352Z,67.63
2022-08-27T20:15:15.212Z,67.62
2022-08-27T20:17:44.046Z,67.80
2022-08-27T20:20:13.603Z,67.76
2022-08-27T20:22:42.075Z,68.02
2022-08-27T20:25:10.902Z,68.51
2022-08-27T20:27:40.844Z,68.33
2022-08-27T20:30:11.465Z,68.23
2022-08-27T20:32:39.478Z,68.27
2022-08-27T20:35:09.579Z,69.06
2022-08-27T20:37:42.022Z,68.81
2022-08-27T20:40:15.110Z,69.08
2022-08-27T20:42:45.419Z,69.42
2022-08-27T20:45:14.063Z,69.72
2022-08-27T20:47:42.640Z,69.91
2022-08-27T20:50:12.817Z,69.77
2022-08-27T20:52:41.225Z,69.65
2022-08-27T20:55:12.080Z,69.83
2022-08-27T20:58:04.530Z,69.56
2022-08-27T21:00:37.025Z,69.74
2022-08-27T21:03:30.335Z,69.87
2022-08-27T21:05:58.338Z,69.57
2022-08-27T21:08:26.450Z,69.44
2022-08-27T21:10:57.409Z,69.80
2022-08-27T21:13:27.749Z,69.62
2022-08-27T21:15:57.249Z,70.61
2022-08-27T21:18:29.980Z,70.04
2022-08-27T21:20:58.675Z,72.00
2022-08-27T21:23:27.850Z,72.35
2022-08-27T21:25:56.125Z,72.25
2022-08-27T21:28:24.148Z,71.80
2022-08-27T21:30:52.141Z,72.03
2022-08-27T21:33:21.703Z,71.75
2022-08-27T21:35:49.757Z,71.20
2022-08-27T21:38:17.798Z,71.11
2022-08-27T21:40:45.834Z,71.54
2022-08-27T21:43:13.887Z,71.39
2022-08-27T21:45:45.880Z,71.97
2022-08-27T21:48:14.114Z,71.91
2022-08-27T21:50:43.653Z,71.88
2022-08-27T21:53:11.726Z,71.18
2022-08-27T21:55:39.781Z,71.36
2022-08-27T21:58:07.842Z,71.59
2022-08-27T22:00:41.095Z,71.50
2022-08-27T22:03:13.338Z,71.65
2022-08-27T22:05:45.016Z,71.85
2022-08-27T22:08:14.056Z,71.64
2022-08-27T22:10:44.593Z,71.64
2022-08-27T22:13:13.006Z,72.00
2022-08-27T22:15:41.523Z,72.41
2022-08-27T22:18:09.993Z,72.03
2022-08-27T22:20:38.399Z,72.77
2022-08-27T22:23:10.325Z,72.58
2022-08-27T22:25:38.496Z,72.83
2022-08-27T22:28:06.990Z,72.89
2022-08-27T22:30:35.175Z,73.20
2022-08-27T22:33:03.282Z,72.95
2022-08-27T22:35:31.349Z,72.89
2022-08-27T22:37:59.388Z,73.44
2022-08-27T22:40:30.744Z,74.41
2022-08-27T22:42:59.157Z,74.39
2022-08-27T22:45:28.178Z,74.38
2022-08-27T22:47:56.381Z,74.19
2022-08-27T22:50:24.801Z,73.78
2022-08-27T22:52:54.243Z,74.45
2022-08-27T22:55:23.656Z,74.32
2022-08-27T22:57:54.350Z,73.85
2022-08-27T23:00:24.996Z,74.47
2022-08-27T23:02:53.262Z,74.09
2022-08-27T23:05:21.820Z,74.27
2022-08-27T23:07:49.886Z,74.47
2022-08-27T23:10:19.362Z,75.84
2022-08-27T23:12:48.194Z,75.81
2022-08-27T23:15:19.712Z,75.40
2022-08-27T23:17:47.842Z,75.40
2022-08-27T23:20:17.055Z,75.35
2022-08-27T23:22:45.541Z,75.47
2022-08-27T23:25:31.615Z,75.31
2022-08-27T23:27:59.993Z,75.81
2022-08-27T23:30:30.353Z,74.93
2022-08-27T23:32:58.425Z,75.27
2022-08-27T23:35:29.128Z,76.46
2022-08-27T23:37:57.962Z,76.71
2022-08-27T23:40:26.456Z,77.09
2022-08-27T23:42:54.936Z,76.36
2022-08-27T23:45:25.371Z,76.71
2022-08-27T23:47:54.776Z,76.45
2022-08-27T23:50:31.525Z,76.50
2022-08-27T23:53:02.453Z,76.56
2022-08-27T23:55:30.553Z,76.79
2022-08-27T23:57:58.594Z,76.75
